sensor_id;sensor_type;location;lat;lon;timestamp;pressure;altitude;pressure_sealevel;temperature;humidity
52591;BME280;38483;42.620;25.394;2023-02-08T00:00:10;98577.28;;;-0.65;48.95
52591;BME280;38483;42.620;25.394;2023-02-08T00:02:37;98576.38;;;-0.69;49.26
52591;BME280;38483;42.620;25.394;2023-02-08T00:05:04;98585.44;;;-0.80;48.97
52591;BME280;38483;42.620;25.394;2023-02-08T00:07:31;98590.50;;;-0.80;49.29
52591;BME280;38483;42.620;25.394;2023-02-08T00:09:58;98590.50;;;-0.80;49.42
52591;BME280;38483;42.620;25.394;2023-02-08T00:12:26;98580.53;;;-1.08;50.82
52591;BME280;38483;42.620;25.394;2023-02-08T00:14:53;98593.50;;;-0.98;51.30
52591;BME280;38483;42.620;25.394;2023-02-08T00:17:20;98596.31;;;-0.87;50.99
52591;BME280;38483;42.620;25.394;2023-02-08T00:19:47;98594.56;;;-0.88;50.50
52591;BME280;38483;42.620;25.394;2023-02-08T00:22:14;98591.06;;;-0.93;50.00
52591;BME280;38483;42.620;25.394;2023-02-08T00:24:41;98598.78;;;-0.89;50.03
52591;BME280;38483;42.620;25.394;2023-02-08T00:27:08;98597.09;;;-0.90;50.01
52591;BME280;38483;42.620;25.394;2023-02-08T00:29:35;98601.00;;;-1.02;50.88
52591;BME280;38483;42.620;25.394;2023-02-08T00:32:03;98604.31;;;-1.05;50.99
52591;BME280;38483;42.620;25.394;2023-02-08T00:34:30;98604.53;;;-0.97;50.99
52591;BME280;38483;42.620;25.394;2023-02-08T00:36:57;98602.75;;;-1.01;51.78
52591;BME280;38483;42.620;25.394;2023-02-08T00:39:24;98604.22;;;-1.09;51.52
52591;BME280;38483;42.620;25.394;2023-02-08T00:41:51;98604.28;;;-1.08;51.72
52591;BME280;38483;42.620;25.394;2023-02-08T00:44:18;98607.00;;;-1.00;51.76
52591;BME280;38483;42.620;25.394;2023-02-08T00:46:45;98595.81;;;-1.07;52.24
52591;BME280;38483;42.620;25.394;2023-02-08T00:49:12;98605.03;;;-1.10;52.50
52591;BME280;38483;42.620;25.394;2023-02-08T00:51:39;98610.88;;;-1.14;52.98
52591;BME280;38483;42.620;25.394;2023-02-08T00:54:06;98599.88;;;-1.13;52.56
52591;BME280;38483;42.620;25.394;2023-02-08T00:56:38;98597.50;;;-1.07;53.01
52591;BME280;38483;42.620;25.394;2023-02-08T00:59:04;98602.66;;;-1.04;53.35
52591;BME280;38483;42.620;25.394;2023-02-08T01:01:32;98596.50;;;-1.14;53.50
52591;BME280;38483;42.620;25.394;2023-02-08T01:03:59;98603.00;;;-1.23;54.35
52591;BME280;38483;42.620;25.394;2023-02-08T01:06:26;98606.19;;;-1.32;55.18
52591;BME280;38483;42.620;25.394;2023-02-08T01:08:53;98604.66;;;-1.25;55.51
52591;BME280;38483;42.620;25.394;2023-02-08T01:11:22;98613.91;;;-1.27;55.32
52591;BME280;38483;42.620;25.394;2023-02-08T01:13:55;98622.44;;;-1.25;56.18
52591;BME280;38483;42.620;25.394;2023-02-08T01:16:28;98618.97;;;-1.29;55.80
52591;BME280;38483;42.620;25.394;2023-02-08T01:18:57;98618.63;;;-1.42;56.88
52591;BME280;38483;42.620;25.394;2023-02-08T01:21:27;98631.69;;;-1.29;57.07
52591;BME280;38483;42.620;25.394;2023-02-08T01:23:54;98620.16;;;-1.47;57.65
52591;BME280;38483;42.620;25.394;2023-02-08T01:26:22;98637.06;;;-1.49;57.63
52591;BME280;38483;42.620;25.394;2023-02-08T01:28:50;98632.97;;;-1.44;58.12
52591;BME280;38483;42.620;25.394;2023-02-08T01:31:26;98616.88;;;-1.43;57.95
52591;BME280;38483;42.620;25.394;2023-02-08T01:33:56;98625.25;;;-1.47;58.28
52591;BME280;38483;42.620;25.394;2023-02-08T01:36:24;98629.53;;;-1.46;59.13
52591;BME280;38483;42.620;25.394;2023-02-08T01:38:51;98641.38;;;-1.45;58.95
52591;BME280;38483;42.620;25.394;2023-02-08T01:41:24;98637.25;;;-1.42;59.49
52591;BME280;38483;42.620;25.394;2023-02-08T01:46:39;98625.63;;;-1.65;60.14
52591;BME280;38483;42.620;25.394;2023-02-08T01:49:13;98636.59;;;-1.66;60.06
52591;BME280;38483;42.620;25.394;2023-02-08T01:52:02;98645.13;;;-1.64;60.44
52591;BME280;38483;42.620;25.394;2023-02-08T01:54:45;98652.59;;;-1.69;60.70
52591;BME280;38483;42.620;25.394;2023-02-08T01:57:15;98630.25;;;-1.82;61.01
52591;BME280;38483;42.620;25.394;2023-02-08T01:59:52;98660.16;;;-1.72;61.07
52591;BME280;38483;42.620;25.394;2023-02-08T02:02:24;98659.56;;;-1.63;60.94
52591;BME280;38483;42.620;25.394;2023-02-08T02:04:52;98659.63;;;-1.60;60.81
52591;BME280;38483;42.620;25.394;2023-02-08T02:07:21;98654.16;;;-1.74;61.51
52591;BME280;38483;42.620;25.394;2023-02-08T02:12:30;98662.09;;;-1.63;60.94
52591;BME280;38483;42.620;25.394;2023-02-08T02:15:00;98657.91;;;-1.61;61.41
52591;BME280;38483;42.620;25.394;2023-02-08T02:17:29;98653.84;;;-1.54;61.50
52591;BME280;38483;42.620;25.394;2023-02-08T02:34:14;98663.06;;;-1.58;61.98
52591;BME280;38483;42.620;25.394;2023-02-08T02:42:13;98669.34;;;-1.75;62.76
52591;BME280;38483;42.620;25.394;2023-02-08T02:50:53;98679.81;;;-1.94;63.13
52591;BME280;38483;42.620;25.394;2023-02-08T02:56:07;98678.59;;;-1.77;63.46
52591;BME280;38483;42.620;25.394;2023-02-08T02:58:37;98682.88;;;-1.76;63.45
52591;BME280;38483;42.620;25.394;2023-02-08T03:01:05;98683.06;;;-1.69;63.44
52591;BME280;38483;42.620;25.394;2023-02-08T03:03:33;98685.69;;;-1.67;63.35
52591;BME280;38483;42.620;25.394;2023-02-08T03:06:07;98689.09;;;-1.95;63.52
52591;BME280;38483;42.620;25.394;2023-02-08T03:11:22;98685.03;;;-1.90;63.98
52591;BME280;38483;42.620;25.394;2023-02-08T03:19:44;98678.53;;;-2.08;64.51
52591;BME280;38483;42.620;25.394;2023-02-08T03:22:18;98686.00;;;-2.13;64.40
52591;BME280;38483;42.620;25.394;2023-02-08T03:25:33;98694.19;;;-1.93;64.57
52591;BME280;38483;42.620;25.394;2023-02-08T03:28:03;98690.78;;;-1.94;64.17
52591;BME280;38483;42.620;25.394;2023-02-08T03:30:41;98682.34;;;-1.94;64.54
52591;BME280;38483;42.620;25.394;2023-02-08T03:35:50;98691.25;;;-1.79;64.43
52591;BME280;38483;42.620;25.394;2023-02-08T03:38:32;98682.81;;;-1.78;64.34
52591;BME280;38483;42.620;25.394;2023-02-08T03:41:03;98684.47;;;-1.80;64.39
52591;BME280;38483;42.620;25.394;2023-02-08T03:43:36;98684.03;;;-1.93;64.86
52591;BME280;38483;42.620;25.394;2023-02-08T03:46:09;98690.16;;;-1.87;65.32
52591;BME280;38483;42.620;25.394;2023-02-08T03:48:40;98694.44;;;-1.86;65.14
52591;BME280;38483;42.620;25.394;2023-02-08T03:51:08;98695.25;;;-1.87;65.55
52591;BME280;38483;42.620;25.394;2023-02-08T03:53:36;98704.81;;;-1.78;65.82
52591;BME280;38483;42.620;25.394;2023-02-08T03:56:19;98705.69;;;-1.78;65.54
52591;BME280;38483;42.620;25.394;2023-02-08T03:58:58;98705.72;;;-1.76;65.64
52591;BME280;38483;42.620;25.394;2023-02-08T04:01:34;98710.28;;;-1.93;66.17
52591;BME280;38483;42.620;25.394;2023-02-08T04:04:03;98720.56;;;-1.90;66.71
52591;BME280;38483;42.620;25.394;2023-02-08T04:06:30;98722.84;;;-1.97;66.59
52591;BME280;38483;42.620;25.394;2023-02-08T04:08:57;98721.50;;;-2.14;67.38
52591;BME280;38483;42.620;25.394;2023-02-08T04:11:24;98727.88;;;-1.99;67.50
52591;BME280;38483;42.620;25.394;2023-02-08T04:13:51;98719.38;;;-2.01;66.68
52591;BME280;38483;42.620;25.394;2023-02-08T04:16:18;98735.84;;;-2.15;68.03
52591;BME280;38483;42.620;25.394;2023-02-08T04:18:45;98729.00;;;-2.17;68.42
52591;BME280;38483;42.620;25.394;2023-02-08T04:21:12;98739.34;;;-2.11;68.59
52591;BME280;38483;42.620;25.394;2023-02-08T04:23:39;98733.75;;;-2.00;68.42
52591;BME280;38483;42.620;25.394;2023-02-08T04:26:06;98735.50;;;-1.99;67.93
52591;BME280;38483;42.620;25.394;2023-02-08T04:28:34;98744.69;;;-2.02;68.11
52591;BME280;38483;42.620;25.394;2023-02-08T04:31:01;98744.38;;;-2.13;69.04
52591;BME280;38483;42.620;25.394;2023-02-08T04:33:28;98746.22;;;-2.07;68.88
52591;BME280;38483;42.620;25.394;2023-02-08T04:35:55;98745.78;;;-1.94;69.21
52591;BME280;38483;42.620;25.394;2023-02-08T04:38:22;98750.00;;;-1.95;69.06
52591;BME280;38483;42.620;25.394;2023-02-08T04:40:49;98758.63;;;-1.90;66.93
52591;BME280;38483;42.620;25.394;2023-02-08T04:43:16;98765.94;;;-1.99;67.81
52591;BME280;38483;42.620;25.394;2023-02-08T04:45:43;98748.44;;;-2.18;69.00
52591;BME280;38483;42.620;25.394;2023-02-08T04:48:10;98764.09;;;-2.04;69.54
52591;BME280;38483;42.620;25.394;2023-02-08T04:50:37;98748.03;;;-2.03;69.71
52591;BME280;38483;42.620;25.394;2023-02-08T04:53:05;98771.91;;;-1.98;68.97
52591;BME280;38483;42.620;25.394;2023-02-08T04:55:33;98772.00;;;-1.94;69.18
52591;BME280;38483;42.620;25.394;2023-02-08T04:58:00;98777.91;;;-1.95;69.73
52591;BME280;38483;42.620;25.394;2023-02-08T05:00:27;98779.72;;;-1.91;70.54
52591;BME280;38483;42.620;25.394;2023-02-08T05:02:55;98768.56;;;-1.96;70.18
52591;BME280;38483;42.620;25.394;2023-02-08T05:05:24;98792.84;;;-1.77;69.87
52591;BME280;38483;42.620;25.394;2023-02-08T05:07:51;98800.34;;;-1.82;69.10
52591;BME280;38483;42.620;25.394;2023-02-08T05:10:18;98802.56;;;-1.91;69.01
52591;BME280;38483;42.620;25.394;2023-02-08T05:12:45;98787.59;;;-2.10;69.11
52591;BME280;38483;42.620;25.394;2023-02-08T05:15:12;98809.13;;;-1.97;69.03
52591;BME280;38483;42.620;25.394;2023-02-08T05:17:40;98812.53;;;-1.97;69.39
52591;BME280;38483;42.620;25.394;2023-02-08T05:20:07;98810.81;;;-1.98;69.20
52591;BME280;38483;42.620;25.394;2023-02-08T05:22:35;98808.72;;;-2.11;69.42
52591;BME280;38483;42.620;25.394;2023-02-08T05:25:03;98823.63;;;-2.20;68.92
52591;BME280;38483;42.620;25.394;2023-02-08T05:27:30;98829.00;;;-2.11;68.80
52591;BME280;38483;42.620;25.394;2023-02-08T05:29:57;98825.84;;;-2.04;68.98
52591;BME280;38483;42.620;25.394;2023-02-08T05:32:25;98832.34;;;-2.12;68.28
52591;BME280;38483;42.620;25.394;2023-02-08T05:34:51;98829.22;;;-2.05;68.55
52591;BME280;38483;42.620;25.394;2023-02-08T05:37:18;98835.88;;;-2.08;68.93
52591;BME280;38483;42.620;25.394;2023-02-08T05:39:45;98805.28;;;-2.38;68.03
52591;BME280;38483;42.620;25.394;2023-02-08T05:42:12;98834.84;;;-2.13;68.34
52591;BME280;38483;42.620;25.394;2023-02-08T05:44:39;98837.94;;;-2.22;68.42
52591;BME280;38483;42.620;25.394;2023-02-08T05:47:06;98843.41;;;-2.10;68.02
52591;BME280;38483;42.620;25.394;2023-02-08T05:49:33;98851.72;;;-2.14;67.82
52591;BME280;38483;42.620;25.394;2023-02-08T05:52:00;98850.63;;;-2.22;67.28
52591;BME280;38483;42.620;25.394;2023-02-08T05:54:27;98848.03;;;-2.23;67.73
52591;BME280;38483;42.620;25.394;2023-02-08T05:56:54;98834.50;;;-2.24;67.97
52591;BME280;38483;42.620;25.394;2023-02-08T05:59:21;98841.19;;;-2.26;67.46
52591;BME280;38483;42.620;25.394;2023-02-08T06:01:48;98847.03;;;-2.28;67.31
52591;BME280;38483;42.620;25.394;2023-02-08T06:04:15;98836.03;;;-2.29;67.81
52591;BME280;38483;42.620;25.394;2023-02-08T06:06:42;98823.94;;;-2.36;68.31
52591;BME280;38483;42.620;25.394;2023-02-08T06:09:09;98817.25;;;-2.34;68.10
52591;BME280;38483;42.620;25.394;2023-02-08T06:11:36;98825.72;;;-2.33;68.35
52591;BME280;38483;42.620;25.394;2023-02-08T06:14:03;98831.97;;;-2.24;68.30
52591;BME280;38483;42.620;25.394;2023-02-08T06:16:30;98836.59;;;-2.12;68.07
52591;BME280;38483;42.620;25.394;2023-02-08T06:18:57;98828.81;;;-2.17;68.11
52591;BME280;38483;42.620;25.394;2023-02-08T06:21:24;98842.94;;;-2.25;68.58
52591;BME280;38483;42.620;25.394;2023-02-08T06:23:51;98833.78;;;-2.20;69.25
52591;BME280;38483;42.620;25.394;2023-02-08T06:26:17;98834.44;;;-2.00;68.96
52591;BME280;38483;42.620;25.394;2023-02-08T06:28:45;98819.41;;;-1.94;69.10
52591;BME280;38483;42.620;25.394;2023-02-08T06:31:11;98818.38;;;-1.73;68.54
52591;BME280;38483;42.620;25.394;2023-02-08T06:33:38;98813.63;;;-1.62;67.92
52591;BME280;38483;42.620;25.394;2023-02-08T06:36:06;98821.78;;;-1.72;68.03
52591;BME280;38483;42.620;25.394;2023-02-08T06:38:33;98823.81;;;-1.60;67.48
52591;BME280;38483;42.620;25.394;2023-02-08T06:41:00;98834.63;;;-1.68;66.64
52591;BME280;38483;42.620;25.394;2023-02-08T06:43:26;98814.88;;;-1.76;66.91
52591;BME280;38483;42.620;25.394;2023-02-08T06:45:54;98826.53;;;-1.28;66.62
52591;BME280;38483;42.620;25.394;2023-02-08T06:48:21;98833.41;;;-0.94;66.59
52591;BME280;38483;42.620;25.394;2023-02-08T06:50:51;98826.72;;;-0.91;64.94
52591;BME280;38483;42.620;25.394;2023-02-08T06:53:18;98834.16;;;-0.67;63.91
52591;BME280;38483;42.620;25.394;2023-02-08T06:55:48;98826.09;;;-0.51;63.43
52591;BME280;38483;42.620;25.394;2023-02-08T06:58:16;98812.75;;;-0.42;61.77
52591;BME280;38483;42.620;25.394;2023-02-08T07:00:43;98827.69;;;-0.56;60.98
52591;BME280;38483;42.620;25.394;2023-02-08T07:03:14;98829.63;;;-0.78;60.85
52591;BME280;38483;42.620;25.394;2023-02-08T07:05:43;98830.44;;;-0.78;60.86
52591;BME280;38483;42.620;25.394;2023-02-08T07:08:30;98842.09;;;-0.86;60.11
52591;BME280;38483;42.620;25.394;2023-02-08T07:10:57;98840.78;;;-0.72;57.50
52591;BME280;38483;42.620;25.394;2023-02-08T07:13:24;98831.03;;;-0.88;57.03
52591;BME280;38483;42.620;25.394;2023-02-08T07:15:51;98832.78;;;-0.86;57.24
52591;BME280;38483;42.620;25.394;2023-02-08T07:18:21;98809.94;;;-0.84;56.43
52591;BME280;38483;42.620;25.394;2023-02-08T07:20:49;98853.22;;;-0.82;56.89
52591;BME280;38483;42.620;25.394;2023-02-08T07:23:17;98830.97;;;-0.91;56.13
52591;BME280;38483;42.620;25.394;2023-02-08T07:25:46;98829.22;;;-0.61;55.61
52591;BME280;38483;42.620;25.394;2023-02-08T07:28:29;98837.03;;;-0.55;54.74
52591;BME280;38483;42.620;25.394;2023-02-08T07:31:10;98809.34;;;-0.75;53.84
52591;BME280;38483;42.620;25.394;2023-02-08T07:33:38;98834.88;;;-0.40;53.74
52591;BME280;38483;42.620;25.394;2023-02-08T07:36:06;98846.72;;;-0.42;54.73
52591;BME280;38483;42.620;25.394;2023-02-08T07:38:35;98827.84;;;-0.50;54.87
52591;BME280;38483;42.620;25.394;2023-02-08T07:41:12;98845.50;;;0.13;54.14
52591;BME280;38483;42.620;25.394;2023-02-08T07:43:40;98858.75;;;0.32;52.64
52591;BME280;38483;42.620;25.394;2023-02-08T07:46:15;98853.13;;;0.47;52.50
52591;BME280;38483;42.620;25.394;2023-02-08T07:48:42;98856.19;;;0.69;52.47
52591;BME280;38483;42.620;25.394;2023-02-08T07:51:10;98861.53;;;0.80;52.05
52591;BME280;38483;42.620;25.394;2023-02-08T07:53:37;98869.88;;;0.73;51.61
52591;BME280;38483;42.620;25.394;2023-02-08T07:56:05;98876.59;;;0.34;52.55
52591;BME280;38483;42.620;25.394;2023-02-08T07:58:32;98879.16;;;0.34;52.39
52591;BME280;38483;42.620;25.394;2023-02-08T08:00:59;98872.19;;;0.27;50.62
52591;BME280;38483;42.620;25.394;2023-02-08T08:03:38;98883.38;;;-0.34;52.63
52591;BME280;38483;42.620;25.394;2023-02-08T08:06:05;98888.66;;;-0.57;52.13
52591;BME280;38483;42.620;25.394;2023-02-08T08:08:32;98876.63;;;-0.64;53.93
52591;BME280;38483;42.620;25.394;2023-02-08T08:10:59;98886.94;;;-0.60;54.39
52591;BME280;38483;42.620;25.394;2023-02-08T08:13:29;98887.41;;;-0.73;54.36
52591;BME280;38483;42.620;25.394;2023-02-08T08:15:58;98879.75;;;-1.03;55.84
52591;BME280;38483;42.620;25.394;2023-02-08T08:18:53;98881.91;;;-0.87;56.67
52591;BME280;38483;42.620;25.394;2023-02-08T08:21:20;98918.03;;;-0.98;55.57
52591;BME280;38483;42.620;25.394;2023-02-08T08:23:47;98929.00;;;-1.54;57.81
52591;BME280;38483;42.620;25.394;2023-02-08T08:26:17;98920.03;;;-1.70;59.25
52591;BME280;38483;42.620;25.394;2023-02-08T08:28:46;98928.31;;;-1.75;59.03
52591;BME280;38483;42.620;25.394;2023-02-08T08:31:15;98925.38;;;-1.87;60.40
52591;BME280;38483;42.620;25.394;2023-02-08T08:33:43;98910.88;;;-1.65;59.92
52591;BME280;38483;42.620;25.394;2023-02-08T08:36:10;98932.19;;;-1.34;58.74
52591;BME280;38483;42.620;25.394;2023-02-08T08:38:37;98930.81;;;-1.23;56.77
52591;BME280;38483;42.620;25.394;2023-02-08T08:41:14;98937.81;;;-1.16;56.00
52591;BME280;38483;42.620;25.394;2023-02-08T08:43:43;98910.78;;;-1.14;56.96
52591;BME280;38483;42.620;25.394;2023-02-08T08:46:10;98930.13;;;-0.91;55.03
52591;BME280;38483;42.620;25.394;2023-02-08T08:48:37;98931.59;;;-0.98;55.89
52591;BME280;38483;42.620;25.394;2023-02-08T08:51:05;98924.03;;;-0.96;56.53
52591;BME280;38483;42.620;25.394;2023-02-08T08:53:33;98929.09;;;-0.96;56.11
52591;BME280;38483;42.620;25.394;2023-02-08T08:56:00;98923.16;;;-0.97;55.81
52591;BME280;38483;42.620;25.394;2023-02-08T08:58:28;98932.41;;;-0.99;55.51
52591;BME280;38483;42.620;25.394;2023-02-08T09:00:56;98938.06;;;-0.80;55.02
52591;BME280;38483;42.620;25.394;2023-02-08T09:03:25;98928.69;;;-0.52;54.73
52591;BME280;38483;42.620;25.394;2023-02-08T09:05:52;98929.66;;;-1.06;56.52
52591;BME280;38483;42.620;25.394;2023-02-08T09:08:20;98929.66;;;-1.06;55.99
52591;BME280;38483;42.620;25.394;2023-02-08T09:10:47;98931.84;;;-0.89;55.18
52591;BME280;38483;42.620;25.394;2023-02-08T09:13:18;98940.88;;;-0.70;54.92
52591;BME280;38483;42.620;25.394;2023-02-08T09:15:47;98931.94;;;-0.87;55.68
52591;BME280;38483;42.620;25.394;2023-02-08T09:18:15;98954.88;;;-0.56;54.38
52591;BME280;38483;42.620;25.394;2023-02-08T09:20:42;98956.09;;;-1.01;55.94
52591;BME280;38483;42.620;25.394;2023-02-08T09:23:10;98947.81;;;-0.94;56.11
52591;BME280;38483;42.620;25.394;2023-02-08T09:25:37;98959.72;;;-0.93;55.76
52591;BME280;38483;42.620;25.394;2023-02-08T09:28:04;98963.50;;;-0.80;55.52
52591;BME280;38483;42.620;25.394;2023-02-08T09:30:32;98878.69;;;-1.39;55.77
52591;BME280;38483;42.620;25.394;2023-02-08T09:32:58;98955.72;;;-0.85;54.89
52591;BME280;38483;42.620;25.394;2023-02-08T09:35:25;98958.06;;;-0.63;54.59
52591;BME280;38483;42.620;25.394;2023-02-08T09:37:53;98959.25;;;-0.80;55.11
52591;BME280;38483;42.620;25.394;2023-02-08T09:40:27;98952.66;;;-0.73;53.88
52591;BME280;38483;42.620;25.394;2023-02-08T09:43:05;98963.41;;;-0.23;53.20
52591;BME280;38483;42.620;25.394;2023-02-08T09:45:50;98980.81;;;-0.96;52.91
52591;BME280;38483;42.620;25.394;2023-02-08T09:48:37;98967.75;;;-1.08;54.00
52591;BME280;38483;42.620;25.394;2023-02-08T09:51:49;98969.81;;;-0.95;52.86
52591;BME280;38483;42.620;25.394;2023-02-08T09:56:51;98953.41;;;-0.48;52.78
52591;BME280;38483;42.620;25.394;2023-02-08T09:59:29;98943.16;;;-0.20;52.76
52591;BME280;38483;42.620;25.394;2023-02-08T10:04:51;98954.25;;;-0.18;50.28
52591;BME280;38483;42.620;25.394;2023-02-08T10:07:22;98954.56;;;-0.37;50.09
52591;BME280;38483;42.620;25.394;2023-02-08T10:09:49;98948.22;;;-0.51;51.55
52591;BME280;38483;42.620;25.394;2023-02-08T10:15:20;98956.31;;;0.30;50.85
52591;BME280;38483;42.620;25.394;2023-02-08T10:20:56;98944.09;;;0.17;49.66
52591;BME280;38483;42.620;25.394;2023-02-08T10:34:45;98950.38;;;0.29;50.46
52591;BME280;38483;42.620;25.394;2023-02-08T10:37:27;98935.91;;;0.64;48.66
52591;BME280;38483;42.620;25.394;2023-02-08T10:39:59;98928.97;;;0.57;48.32
52591;BME280;38483;42.620;25.394;2023-02-08T10:42:30;98941.72;;;0.23;48.22
52591;BME280;38483;42.620;25.394;2023-02-08T10:45:14;98947.97;;;0.03;49.90
52591;BME280;38483;42.620;25.394;2023-02-08T10:48:04;98956.16;;;-0.09;49.82
52591;BME280;38483;42.620;25.394;2023-02-08T10:50:39;98942.50;;;-0.13;50.39
52591;BME280;38483;42.620;25.394;2023-02-08T10:53:13;98956.94;;;0.21;50.09
52591;BME280;38483;42.620;25.394;2023-02-08T10:55:44;98963.47;;;0.10;49.48
52591;BME280;38483;42.620;25.394;2023-02-08T10:58:29;98952.81;;;0.25;49.49
52591;BME280;38483;42.620;25.394;2023-02-08T11:01:00;98959.00;;;0.34;50.43
52591;BME280;38483;42.620;25.394;2023-02-08T11:03:34;98963.16;;;0.31;51.03
52591;BME280;38483;42.620;25.394;2023-02-08T11:06:24;98865.81;;;0.08;50.54
52591;BME280;38483;42.620;25.394;2023-02-08T11:08:54;98951.22;;;1.01;50.06
52591;BME280;38483;42.620;25.394;2023-02-08T11:11:34;98946.59;;;1.22;48.33
52591;BME280;38483;42.620;25.394;2023-02-08T11:14:09;98952.59;;;1.24;46.54
52591;BME280;38483;42.620;25.394;2023-02-08T11:16:52;98955.78;;;0.77;46.94
52591;BME280;38483;42.620;25.394;2023-02-08T11:22:21;98969.31;;;0.39;48.59
52591;BME280;38483;42.620;25.394;2023-02-08T11:25:05;98940.41;;;0.04;48.57
52591;BME280;38483;42.620;25.394;2023-02-08T11:27:47;98945.47;;;0.37;48.95
52591;BME280;38483;42.620;25.394;2023-02-08T11:33:14;98957.88;;;0.57;49.25
52591;BME280;38483;42.620;25.394;2023-02-08T11:35:54;98953.22;;;0.75;49.17
52591;BME280;38483;42.620;25.394;2023-02-08T11:38:35;98955.22;;;1.27;47.39
52591;BME280;38483;42.620;25.394;2023-02-08T11:41:14;98941.00;;;1.00;49.33
52591;BME280;38483;42.620;25.394;2023-02-08T11:44:06;98936.28;;;0.79;49.30
52591;BME280;38483;42.620;25.394;2023-02-08T11:46:38;98929.25;;;0.69;50.32
52591;BME280;38483;42.620;25.394;2023-02-08T11:49:19;98946.81;;;0.57;50.23
52591;BME280;38483;42.620;25.394;2023-02-08T11:51:48;98942.84;;;0.34;50.82
52591;BME280;38483;42.620;25.394;2023-02-08T11:54:32;98945.75;;;0.15;51.71
52591;BME280;38483;42.620;25.394;2023-02-08T11:57:14;98945.38;;;0.34;51.56
52591;BME280;38483;42.620;25.394;2023-02-08T11:59:42;98945.41;;;0.01;51.92
52591;BME280;38483;42.620;25.394;2023-02-08T12:02:33;98941.31;;;0.40;52.76
52591;BME280;38483;42.620;25.394;2023-02-08T12:05:03;98950.03;;;0.16;51.01
52591;BME280;38483;42.620;25.394;2023-02-08T12:15:54;98941.59;;;0.88;49.77
52591;BME280;38483;42.620;25.394;2023-02-08T12:24:20;98931.66;;;-0.04;50.33
52591;BME280;38483;42.620;25.394;2023-02-08T12:30:56;98946.72;;;0.54;49.98
52591;BME280;38483;42.620;25.394;2023-02-08T12:35:55;98940.88;;;0.58;48.58
52591;BME280;38483;42.620;25.394;2023-02-08T12:39:02;98957.91;;;0.59;50.19
52591;BME280;38483;42.620;25.394;2023-02-08T12:45:07;98962.47;;;0.38;49.23
52591;BME280;38483;42.620;25.394;2023-02-08T12:55:39;98968.75;;;0.18;50.43
52591;BME280;38483;42.620;25.394;2023-02-08T12:58:42;98980.25;;;0.35;49.25
52591;BME280;38483;42.620;25.394;2023-02-08T13:04:01;98977.94;;;0.13;51.06
52591;BME280;38483;42.620;25.394;2023-02-08T13:07:03;98981.06;;;0.01;50.77
52591;BME280;38483;42.620;25.394;2023-02-08T13:09:41;98979.41;;;0.03;50.86
52591;BME280;38483;42.620;25.394;2023-02-08T13:12:16;98992.28;;;0.08;50.85
52591;BME280;38483;42.620;25.394;2023-02-08T13:14:51;98974.00;;;-0.09;51.60
52591;BME280;38483;42.620;25.394;2023-02-08T13:17:21;98988.88;;;0.09;52.11
52591;BME280;38483;42.620;25.394;2023-02-08T13:20:02;98996.44;;;-0.26;52.38
52591;BME280;38483;42.620;25.394;2023-02-08T13:22:34;98985.56;;;-0.20;53.49
52591;BME280;38483;42.620;25.394;2023-02-08T13:25:04;99008.59;;;-0.16;52.80
52591;BME280;38483;42.620;25.394;2023-02-08T13:27:34;98990.00;;;-0.43;53.75
52591;BME280;38483;42.620;25.394;2023-02-08T13:30:03;98993.31;;;-0.16;52.56
52591;BME280;38483;42.620;25.394;2023-02-08T13:32:42;99000.03;;;-0.19;54.28
52591;BME280;38483;42.620;25.394;2023-02-08T13:37:38;99004.69;;;-0.34;55.04
52591;BME280;38483;42.620;25.394;2023-02-08T13:40:19;98999.09;;;-0.51;55.44
52591;BME280;38483;42.620;25.394;2023-02-08T13:42:51;99005.84;;;-0.53;55.52
52591;BME280;38483;42.620;25.394;2023-02-08T13:45:26;99007.19;;;-0.36;55.02
52591;BME280;38483;42.620;25.394;2023-02-08T13:47:59;99011.28;;;-0.41;54.52
52591;BME280;38483;42.620;25.394;2023-02-08T13:50:39;98989.59;;;-0.58;55.53
52591;BME280;38483;42.620;25.394;2023-02-08T13:53:07;98997.41;;;-0.52;54.60
52591;BME280;38483;42.620;25.394;2023-02-08T14:08:27;99012.53;;;-0.56;53.64
52591;BME280;38483;42.620;25.394;2023-02-08T14:11:16;99010.22;;;-0.77;54.36
52591;BME280;38483;42.620;25.394;2023-02-08T14:13:48;99010.75;;;-0.59;55.33
52591;BME280;38483;42.620;25.394;2023-02-08T14:16:33;98991.72;;;-0.71;54.38
52591;BME280;38483;42.620;25.394;2023-02-08T14:19:04;99000.38;;;-0.65;55.18
52591;BME280;38483;42.620;25.394;2023-02-08T14:21:59;99013.25;;;-0.60;54.46
52591;BME280;38483;42.620;25.394;2023-02-08T14:24:40;99015.09;;;-0.55;54.46
52591;BME280;38483;42.620;25.394;2023-02-08T14:27:40;99022.97;;;-0.75;54.36
52591;BME280;38483;42.620;25.394;2023-02-08T14:32:44;99017.00;;;-0.76;54.91
52591;BME280;38483;42.620;25.394;2023-02-08T14:37:41;99015.47;;;-0.71;55.06
52591;BME280;38483;42.620;25.394;2023-02-08T14:45:51;99008.38;;;-0.81;54.54
52591;BME280;38483;42.620;25.394;2023-02-08T14:56:28;99031.34;;;-0.78;55.21
52591;BME280;38483;42.620;25.394;2023-02-08T14:59:12;99018.19;;;-0.93;56.15
52591;BME280;38483;42.620;25.394;2023-02-08T15:01:49;99032.00;;;-0.85;56.12
52591;BME280;38483;42.620;25.394;2023-02-08T15:04:19;99024.66;;;-1.03;57.27
52591;BME280;38483;42.620;25.394;2023-02-08T15:09:37;99034.97;;;-1.25;59.40
52591;BME280;38483;42.620;25.394;2023-02-08T15:14:44;99036.97;;;-1.15;59.23
52591;BME280;38483;42.620;25.394;2023-02-08T15:17:20;99033.34;;;-1.23;58.39
52591;BME280;38483;42.620;25.394;2023-02-08T15:19:49;99035.44;;;-1.36;59.90
52591;BME280;38483;42.620;25.394;2023-02-08T15:22:36;99039.72;;;-1.34;58.91
52591;BME280;38483;42.620;25.394;2023-02-08T15:25:33;99037.81;;;-1.41;58.66
52591;BME280;38483;42.620;25.394;2023-02-08T15:28:18;99029.13;;;-1.47;59.27
52591;BME280;38483;42.620;25.394;2023-02-08T15:33:22;99026.19;;;-1.34;56.29
52591;BME280;38483;42.620;25.394;2023-02-08T15:35:59;99021.72;;;-1.41;56.98
52591;BME280;38483;42.620;25.394;2023-02-08T15:38:27;99026.91;;;-1.38;57.56
52591;BME280;38483;42.620;25.394;2023-02-08T15:41:25;99034.41;;;-1.41;57.86
52591;BME280;38483;42.620;25.394;2023-02-08T15:44:22;99020.28;;;-1.33;58.06
52591;BME280;38483;42.620;25.394;2023-02-08T15:46:51;99042.16;;;-1.38;56.78